• Join FlightAware (Why Join?)
  • Login
  • US Flag 
03:17AM EDT


 

Airport Tracker/Info


-or-


 

Live Flight TrackerFlight Track Log ✈ N832R ✈ 17-Sep-2013 ✈ KFXY - KEKM

Flight Track Log - Related Links

Times and Time Zones

All times are in EDT time to prevent confusion due to time zone crossing. See the N832R flight status page for this flight to view local times or setup timezone preferences in your user account.

Time Position Orientation Groundspeed Altitude Reporting Facility
EDT Latitude Longitude Course Direction KTS MPH feet Rate Location/Type
03:18PM 43.2006 -93.5583 105° East 190 219 5,400  Level Minneapolis Center
03:19PM 43.1856 -93.4658 103° East 254 292 6,200 240 Climbing Minneapolis Center
03:20PM 43.1756 -93.3597 97° East 276 318 6,000 120 Descending Minneapolis Center
03:21PM 43.1589 -93.2606 103° East 273 314 6,500 1,200 Climbing Minneapolis Center
03:22PM 43.1417 -93.1578 103° East 275 316 8,600 2,400 Climbing Minneapolis Center
03:23PM 43.1115 -92.8768 105° East  Level Estimated
03:23PM 43.1208 -93.0119 101° East 311 358 11,500  Level Minneapolis Center
03:24PM 43.1008 -92.8817 102° East 341 392 14,400 2,820 Climbing Minneapolis Center
03:25PM 43.0817 -92.7517 101° East 350 403 17,400 2,760 Climbing Minneapolis Center
03:26PM 43.0622 -92.6231 102° East 350 403 20,200 2,160 Climbing Minneapolis Center
03:27PM 43.0361 -92.4675 103° East 351 404 22,000 840 Climbing Chicago Center
03:28PM 43.0131 -92.3208 102° East 390 449 22,000  Level Minneapolis Center
03:29PM 42.9897 -92.1722 102° East 402 463 22,000  Level Minneapolis Center
03:30PM 42.9647 -92.0264 103° East 398 458 22,000 420 Level Chicago Center
03:31PM 42.9408 -91.8792 102° East 398 458 22,900 1,380 Climbing Chicago Center
03:32PM 42.9192 -91.7419 102° East 376 433 24,900 2,100 Climbing Chicago Center
03:33PM 42.8936 -91.5806 102° East 361 415 27,300 2,040 Climbing Chicago Center
03:34PM 42.8703 -91.4431 103° East 366 421 29,200 1,740 Climbing Chicago Center
03:35PM 42.8475 -91.3072 103° East 367 422 31,000 1,440 Climbing Chicago Center
03:36PM 42.8236 -91.1706 103° East 371 427 32,300 1,320 Climbing Chicago Center
03:37PM 42.8006 -91.0325 103° East 375 432 33,800 780 Climbing Chicago Center
03:38PM 42.7758 -90.8892 103° East 388 447 34,000 60 Climbing Chicago Center
03:39PM 42.7444 -90.7072 103° East 413 475 34,000  Level Chicago Center
03:40PM 42.7164 -90.5550 104° East 418 481 34,000  Level Chicago Center
03:41PM 42.6900 -90.4014 103° East 420 483 34,000  Level Chicago Center
03:42PM 42.6611 -90.2508 105° East 415 478 34,000  Level Chicago Center
03:44PM 42.6353 -90.0981 103° East 417 480 34,000  Level Chicago Center
03:45PM 42.6014 -89.9156 104° East 418 481 34,000 -180 Level Chicago Center
03:46PM 42.5736 -89.7644 104° East 418 481 33,700 -480 Descending Chicago Center
03:47PM 42.5456 -89.6117 104° East 419 482 33,100 -360 Descending Chicago Center
03:48PM 42.5161 -89.4578 105° East 423 487 33,000 -60 Descending Chicago Center
03:49PM 42.4878 -89.3056 104° East 422 486 33,000  Level Chicago Center
03:50PM 42.4536 -89.1256 104° East 408 470 33,000  Level Chicago Center
03:51PM 42.4228 -88.9664 105° East 409 471 33,000  Level Chicago Center
03:52PM 42.3961 -88.8283 105° East 410 472 33,000  Level Chicago Center
03:53PM 42.3667 -88.6792 105° East 411 473 33,000  Level Chicago Center
03:54PM 42.3381 -88.5314 105° East 410 472 33,000  Level Chicago Center
03:55PM 42.3019 -88.3533 105° East 410 472 33,000 -300 Level Chicago Center
03:56PM 42.2700 -88.2031 106° East 415 478 32,400 -960 Descending Chicago Center
03:57PM 42.2258 -88.0508 111° Southeast 435 501 31,100 -1,320 Descending Chicago Center
03:58PM 42.1678 -87.9053 118° Southeast 442 509 29,700 -1,320 Descending Chicago Center
03:59PM 42.1044 -87.7625 121° Southeast 443 510 28,400 -1,440 Descending Chicago Center
04:00PM 42.0325 -87.6300 126° Southeast 439 505 26,800 -1,560 Descending Chicago Center
04:01PM 41.9933 -87.4786 109° East 429 494 25,200 -1,320 Descending Chicago Center
04:02PM 41.9617 -87.2989 103° East 413 475 24,100 -1,260 Descending Chicago Center
04:03PM 41.9367 -87.1575 103° East 393 452 22,600 -1,800 Descending Chicago Center
04:04PM 41.9103 -87.0167 104° East 391 450 20,500 -2,160 Descending Chicago Center
04:05PM 41.8883 -86.8939 103° East 348 400 18,200 -1,800 Descending Chicago Center
04:06PM 41.8667 -86.7808 104° East 320 368 16,800 -1,380 Descending Chicago Center
04:07PM 41.8442 -86.6636 104° East 291 335 15,400 -1,800 Descending Chicago Center
04:08PM 41.8269 -86.5678 104° East 269 310 13,100 -2,400 Descending Chicago Center
04:09PM 41.8078 -86.4675 104° East 276 318 10,500 -2,460 Descending Chicago Center
04:10PM 41.7894 -86.3744 105° East 264 304 8,100 -2,520 Descending Chicago Center
04:11PM 41.7697 -86.2675 104° East 249 287 5,400 -2,040 Descending Chicago Center
04:13PM 41.7536 -86.1861 105° East 236 272 4,000 -1,260 Descending Chicago Center
04:14PM 41.7319 -86.1272 116° Southeast 202 232 2,900 -1,020 Descending Chicago Center
04:15PM 41.7178 -86.0761 110° East 168 193 1,900 -840 Descending Chicago Center
04:16PM 41.7206 -86.0306 85° East 138 159 1,200 -720 Descending Chicago Center
04:18PM 41.7167 -86.0000 90° East  Level FlightAware Approximate
04:25PM 41.7194 -86.0032 90° East  Level Estimated
04:26PM 41.7167 -86.0000 90° East  Level FlightAware Approximate